createdAt,value
2018-10-11T00:03:38.884Z,13.83
2018-10-11T00:08:42.716Z,14.23
2018-10-11T00:13:46.793Z,14.50
2018-10-11T00:18:50.627Z,14.77
2018-10-11T00:23:54.436Z,14.90
2018-10-11T00:28:58.233Z,14.10
2018-10-11T00:34:02.042Z,13.83
2018-10-11T00:39:06.941Z,12.67
2018-10-11T00:44:13.572Z,14.27
2018-10-11T00:49:17.377Z,14.43
2018-10-11T00:54:21.185Z,14.37
2018-10-11T00:59:24.980Z,14.37
2018-10-11T01:04:28.836Z,13.63
2018-10-11T01:09:32.866Z,13.93
2018-10-11T01:14:36.725Z,14.03
2018-10-11T01:19:40.801Z,15.40
2018-10-11T01:24:45.121Z,15.47
2018-10-11T01:29:48.995Z,15.37
2018-10-11T01:34:52.717Z,14.77
2018-10-11T01:39:56.743Z,15.30
2018-10-11T01:45:00.796Z,15.90
2018-10-11T01:50:04.867Z,14.73
2018-10-11T01:55:08.896Z,14.50
2018-10-11T02:00:12.947Z,15.07
2018-10-11T02:05:16.738Z,15.03
2018-10-11T02:10:20.889Z,14.93
2018-10-11T02:15:25.216Z,14.47
2018-10-11T02:20:29.100Z,14.77
2018-10-11T02:25:32.905Z,15.83
2018-10-11T02:30:36.769Z,15.50
2018-10-11T02:35:40.584Z,15.77
2018-10-11T02:40:44.620Z,15.53
2018-10-11T02:45:48.434Z,16.63
2018-10-11T02:50:52.224Z,16.65
2018-10-11T02:55:56.061Z,16.00
2018-10-11T03:00:59.900Z,15.90
2018-10-11T03:06:03.831Z,17.20
2018-10-11T03:11:07.906Z,16.47
2018-10-11T03:16:11.704Z,15.73
2018-10-11T03:21:15.591Z,16.53
2018-10-11T03:26:19.401Z,16.80
2018-10-11T03:31:23.434Z,17.50
2018-10-11T03:36:33.800Z,17.00
2018-10-11T03:41:37.862Z,16.03
2018-10-11T03:46:42.089Z,17.17
2018-10-11T03:51:45.828Z,18.33
2018-10-11T03:56:49.901Z,17.57
2018-10-11T04:01:54.095Z,16.30
2018-10-11T04:06:58.176Z,17.27
2018-10-11T04:12:02.270Z,16.63
2018-10-11T04:17:06.272Z,17.60
2018-10-11T04:22:10.905Z,18.63
2018-10-11T04:27:14.732Z,19.67
2018-10-11T04:32:18.559Z,19.63
2018-10-11T04:37:22.383Z,19.03
2018-10-11T04:42:26.463Z,18.70
2018-10-11T04:47:30.318Z,18.77
2018-10-11T04:52:34.136Z,19.20
2018-10-11T04:57:38.214Z,19.23
2018-10-11T05:02:42.057Z,20.07
2018-10-11T05:07:46.901Z,19.67
2018-10-11T05:12:51.039Z,19.80
2018-10-11T05:17:55.078Z,19.47
2018-10-11T05:22:59.142Z,19.60
2018-10-11T05:28:03.000Z,20.40
2018-10-11T05:33:06.952Z,20.70
2018-10-11T05:38:10.842Z,20.87
2018-10-11T05:43:15.197Z,22.10
2018-10-11T05:48:19.015Z,22.73
2018-10-11T05:53:22.883Z,22.43
2018-10-11T05:58:27.281Z,21.23
2018-10-11T06:03:31.394Z,20.97
2018-10-11T06:08:35.209Z,23.20
2018-10-11T06:13:39.098Z,22.40
2018-10-11T06:18:43.542Z,21.60
2018-10-11T06:23:47.605Z,21.43
2018-10-11T06:28:51.746Z,21.07
2018-10-11T06:33:55.556Z,20.83
2018-10-11T06:38:59.792Z,19.95
2018-10-11T06:44:03.707Z,19.80
2018-10-11T06:49:07.804Z,19.60
2018-10-11T06:54:11.883Z,19.93
2018-10-11T06:59:15.735Z,19.07
2018-10-11T07:04:19.544Z,17.93
2018-10-11T07:09:23.564Z,17.07
2018-10-11T07:14:27.448Z,17.57
2018-10-11T07:19:31.334Z,17.00
2018-10-11T07:24:35.092Z,16.60
2018-10-11T07:29:38.888Z,17.73
2018-10-11T07:34:42.831Z,16.53
2018-10-11T07:39:46.765Z,16.40
2018-10-11T07:44:50.624Z,17.33
2018-10-11T07:49:54.682Z,15.03
2018-10-11T07:54:58.498Z,15.07
2018-10-11T08:00:02.537Z,15.17
2018-10-11T08:05:06.492Z,14.80
2018-10-11T08:10:10.277Z,14.37
2018-10-11T08:15:14.085Z,14.97
2018-10-11T08:20:17.871Z,13.60
2018-10-11T08:25:21.976Z,13.63
2018-10-11T08:30:25.559Z,13.60
2018-10-11T08:35:29.421Z,13.57
2018-10-11T08:40:33.245Z,13.47
2018-10-11T08:45:37.113Z,15.13
2018-10-11T08:50:40.930Z,15.70
2018-10-11T08:55:44.801Z,15.10
2018-10-11T09:00:48.489Z,14.53
2018-10-11T09:05:52.513Z,14.40
2018-10-11T09:10:56.585Z,13.33
2018-10-11T09:16:00.389Z,12.73
2018-10-11T09:21:04.172Z,12.77
2018-10-11T09:26:08.286Z,13.07
2018-10-11T09:31:12.326Z,14.10
2018-10-11T09:36:16.220Z,12.83
2018-10-11T09:41:20.653Z,12.33
2018-10-11T09:46:24.493Z,13.83
2018-10-11T09:51:28.316Z,12.73
2018-10-11T09:57:47.061Z,13.47
2018-10-11T10:02:51.542Z,13.00
2018-10-11T10:07:55.577Z,13.77
2018-10-11T10:12:59.657Z,12.50
2018-10-11T10:18:03.450Z,11.70
2018-10-11T10:23:07.284Z,11.67
2018-10-11T10:28:11.313Z,11.20
2018-10-11T10:33:15.421Z,11.43
2018-10-11T10:38:19.495Z,10.13
2018-10-11T10:43:23.578Z,9.37
2018-10-11T10:48:27.725Z,9.03
2018-10-11T10:53:31.895Z,9.27
2018-10-11T10:58:35.806Z,9.70
2018-10-11T11:03:39.655Z,9.70
2018-10-11T11:08:43.523Z,9.60
2018-10-11T11:13:47.365Z,8.60
2018-10-11T11:18:51.317Z,10.33
2018-10-11T11:23:55.359Z,9.57
2018-10-11T11:28:59.615Z,10.13
2018-10-11T11:34:03.947Z,9.00
2018-10-11T11:39:08.848Z,9.80
2018-10-11T11:44:12.725Z,8.97
2018-10-11T11:49:16.591Z,9.10
2018-10-11T11:54:21.607Z,9.30
2018-10-11T11:59:25.483Z,9.30
2018-10-11T12:04:29.371Z,8.40
2018-10-11T12:09:33.259Z,8.30
2018-10-11T12:14:37.154Z,8.60
2018-10-11T12:19:41.412Z,8.87
2018-10-11T12:24:45.286Z,8.93
2018-10-11T12:29:49.158Z,8.80
2018-10-11T12:34:53.042Z,8.80
2018-10-11T12:39:57.027Z,8.33
2018-10-11T12:45:01.143Z,7.77
2018-10-11T12:50:05.374Z,7.37
2018-10-11T12:55:09.882Z,7.37
2018-10-11T13:00:15.858Z,7.00
2018-10-11T13:05:19.969Z,7.40
2018-10-11T13:10:24.108Z,7.90
2018-10-11T13:15:28.019Z,8.10
2018-10-11T13:20:31.851Z,7.40
2018-10-11T13:25:35.964Z,8.50
2018-10-11T13:30:39.882Z,7.80
2018-10-11T13:35:43.801Z,7.67
2018-10-11T13:40:47.816Z,8.03
2018-10-11T13:45:55.714Z,7.53
2018-10-11T13:50:55.451Z,7.50
2018-10-11T13:55:59.499Z,7.97
2018-10-11T14:01:03.217Z,7.70
2018-10-11T14:06:07.251Z,7.37
2018-10-11T14:11:11.362Z,6.80
2018-10-11T14:16:15.238Z,7.13
2018-10-11T14:21:19.105Z,6.47
2018-10-11T14:26:23.255Z,6.27
2018-10-11T14:31:27.331Z,5.97
2018-10-11T14:36:31.361Z,6.13
2018-10-11T14:41:36.012Z,5.87
2018-10-11T14:46:39.889Z,5.83
2018-10-11T14:51:47.608Z,5.80
2018-10-11T14:56:47.569Z,5.20
2018-10-11T15:01:52.292Z,5.27
2018-10-11T15:06:56.368Z,5.50
2018-10-11T15:12:00.411Z,5.40
2018-10-11T15:17:04.556Z,5.20
2018-10-11T15:22:08.654Z,5.37
2018-10-11T15:27:12.730Z,5.53
2018-10-11T15:32:16.625Z,5.20
2018-10-11T15:37:20.702Z,5.33
2018-10-11T15:42:24.779Z,4.70
2018-10-11T15:47:28.703Z,5.13
2018-10-11T15:52:32.594Z,5.10
2018-10-11T15:57:36.518Z,5.63
2018-10-11T16:02:40.491Z,6.57
2018-10-11T16:07:44.363Z,7.30
2018-10-11T16:12:48.502Z,8.13
2018-10-11T16:17:52.791Z,8.37
2018-10-11T16:22:57.137Z,9.00
2018-10-11T16:28:00.970Z,9.40
2018-10-11T16:33:05.122Z,9.03
2018-10-11T16:38:09.691Z,9.40
2018-10-11T16:43:13.564Z,9.43
2018-10-11T16:48:17.418Z,9.73
2018-10-11T16:53:21.652Z,9.23
2018-10-11T16:58:25.545Z,9.00
2018-10-11T17:03:29.410Z,8.33
2018-10-11T17:08:33.269Z,8.97
2018-10-11T17:13:37.614Z,8.90
2018-10-11T17:18:43.160Z,8.60
2018-10-11T17:23:47.050Z,8.67
2018-10-11T17:28:51.058Z,8.65
2018-10-11T17:33:54.964Z,8.83
2018-10-11T17:38:59.098Z,8.93
2018-10-11T17:44:03.354Z,8.80
2018-10-11T17:49:07.206Z,8.87
2018-10-11T17:54:11.077Z,8.77
2018-10-11T17:59:15.318Z,9.30
2018-10-11T18:04:19.315Z,8.73
2018-10-11T18:09:23.413Z,9.80
2018-10-11T18:14:27.331Z,10.33
2018-10-11T18:19:31.542Z,9.73
2018-10-11T18:24:35.500Z,10.00
2018-10-11T18:29:39.627Z,10.33
2018-10-11T18:34:43.821Z,10.60
2018-10-11T18:39:47.685Z,11.33
2018-10-11T18:44:52.004Z,10.70
2018-10-11T18:49:55.919Z,11.03
2018-10-11T18:55:00.076Z,11.53
2018-10-11T19:00:04.413Z,12.40
2018-10-11T19:05:08.302Z,11.67
2018-10-11T19:10:12.210Z,11.67
2018-10-11T19:15:16.312Z,12.20
2018-10-11T19:20:21.380Z,11.70
2018-10-11T19:25:25.239Z,12.20
2018-10-11T19:30:30.207Z,12.60
2018-10-11T19:35:34.425Z,13.87
2018-10-11T19:40:38.781Z,12.80
2018-10-11T19:45:42.711Z,14.13
2018-10-11T19:50:46.618Z,13.23
2018-10-11T19:55:50.781Z,12.80
2018-10-11T20:00:55.219Z,13.57
2018-10-11T20:05:59.521Z,13.53
2018-10-11T20:11:03.382Z,14.03
2018-10-11T20:16:07.287Z,14.23
2018-10-11T20:21:11.447Z,14.40
2018-10-11T20:26:15.369Z,15.60
2018-10-11T20:31:19.242Z,14.80
2018-10-11T20:36:23.105Z,15.50
2018-10-11T20:41:26.989Z,15.23
2018-10-11T20:46:31.090Z,16.20
2018-10-11T20:51:35.973Z,15.83
2018-10-11T20:56:39.819Z,15.10
2018-10-11T21:01:43.818Z,15.70
2018-10-11T21:06:47.677Z,16.13
2018-10-11T21:11:52.423Z,15.07
2018-10-11T21:16:56.301Z,15.10
2018-10-11T21:22:00.278Z,14.80
2018-10-11T21:27:04.220Z,14.43
2018-10-11T21:32:08.113Z,15.13
2018-10-11T21:37:12.006Z,14.20
2018-10-11T21:42:15.936Z,14.70
2018-10-11T21:47:19.818Z,14.10
2018-10-11T21:52:23.986Z,14.40
2018-10-11T21:57:28.116Z,14.13
2018-10-11T22:02:31.990Z,14.30
2018-10-11T22:07:36.170Z,15.00
2018-10-11T22:12:40.050Z,13.73
2018-10-11T22:17:43.940Z,13.67
2018-10-11T22:22:47.817Z,15.07
2018-10-11T22:27:51.984Z,13.67
2018-10-11T22:32:55.980Z,13.87
2018-10-11T22:38:01.082Z,14.50
2018-10-11T22:43:05.002Z,13.53
2018-10-11T22:48:09.128Z,13.00
2018-10-11T22:53:12.981Z,13.43
2018-10-11T22:58:16.835Z,13.47
2018-10-11T23:03:20.691Z,12.80
2018-10-11T23:08:24.796Z,12.53
2018-10-11T23:13:28.653Z,12.53
2018-10-11T23:18:32.608Z,12.47
2018-10-11T23:23:36.742Z,12.37
2018-10-11T23:28:41.407Z,13.13
2018-10-11T23:33:45.511Z,10.67
2018-10-11T23:38:49.378Z,11.97
2018-10-11T23:43:53.262Z,11.57
2018-10-11T23:48:57.361Z,12.03
2018-10-11T23:54:01.268Z,12.30
2018-10-11T23:59:05.174Z,12.93
